Mintlaw, United Kingdom
Current Conditions -  °F | °C
As of 4:20 PM on Wednesday 26 Nov 2014 (Local Time) from EGPD Reporting Station
Rain Showers Rain Showers  
Wind Chill: 45°   Ceiling: 3000
Heat Index: 45°   Visibility: 4mi
Dew Point: 43°   Wind: 2mph
Humidity: 93%   Direction: 330°NNW
Pressure: 29.91"   Gusts: NA
Location:  57.52°N, 2°W
Report Text: EGPD 261620Z 33002KT 6000 VCSH FEW008 SCT018 BKN030 07/06 Q1013 NOSIG
Loading
Personal Weather Stations






























Interactive Weather Map New forecast layout! Learn more

10-Day Weather Forecast

Advertisements
Track Severe Weather on mobile